sensor_id;sensor_type;location;lat;lon;timestamp;pressure;altitude;pressure_sealevel;temperature;humidity
72370;BME280;60343;-32.030;115.880;2022-10-17T00:01:12;102048.41;;;17.05;63.79
72370;BME280;60343;-32.030;115.880;2022-10-17T00:03:45;102054.50;;;17.37;63.06
72370;BME280;60343;-32.030;115.880;2022-10-17T00:06:14;102057.72;;;17.70;60.81
72370;BME280;60343;-32.030;115.880;2022-10-17T00:08:42;102062.25;;;17.98;60.47
72370;BME280;60343;-32.030;115.880;2022-10-17T00:11:15;102062.06;;;18.21;59.01
72370;BME280;60343;-32.030;115.880;2022-10-17T00:13:44;102060.38;;;18.56;58.44
72370;BME280;60343;-32.030;115.880;2022-10-17T00:16:11;102060.09;;;18.94;56.46
72370;BME280;60343;-32.030;115.880;2022-10-17T00:18:44;102068.19;;;19.15;56.08
72370;BME280;60343;-32.030;115.880;2022-10-17T00:21:26;102074.72;;;19.27;55.30
72370;BME280;60343;-32.030;115.880;2022-10-17T00:23:58;102068.47;;;19.26;53.93
72370;BME280;60343;-32.030;115.880;2022-10-17T00:26:26;102067.59;;;19.47;53.41
72370;BME280;60343;-32.030;115.880;2022-10-17T00:28:54;102069.19;;;19.69;53.54
72370;BME280;60343;-32.030;115.880;2022-10-17T00:31:23;102069.69;;;19.86;52.92
72370;BME280;60343;-32.030;115.880;2022-10-17T00:33:56;102065.38;;;20.11;51.58
72370;BME280;60343;-32.030;115.880;2022-10-17T00:36:27;102079.19;;;20.10;51.89
72370;BME280;60343;-32.030;115.880;2022-10-17T00:38:56;102074.28;;;20.40;51.86
72370;BME280;60343;-32.030;115.880;2022-10-17T00:41:26;102088.72;;;20.53;49.54
72370;BME280;60343;-32.030;115.880;2022-10-17T00:43:56;102076.78;;;20.35;49.22
72370;BME280;60343;-32.030;115.880;2022-10-17T00:46:28;102091.53;;;20.19;50.36
72370;BME280;60343;-32.030;115.880;2022-10-17T00:49:04;102098.75;;;20.40;50.48
72370;BME280;60343;-32.030;115.880;2022-10-17T00:51:37;102096.13;;;20.19;49.96
72370;BME280;60343;-32.030;115.880;2022-10-17T00:57:00;102101.72;;;20.65;48.56
72370;BME280;60343;-32.030;115.880;2022-10-17T00:59:32;102098.16;;;20.58;49.34
72370;BME280;60343;-32.030;115.880;2022-10-17T01:02:02;102102.56;;;20.52;49.30
72370;BME280;60343;-32.030;115.880;2022-10-17T01:04:36;102107.38;;;20.57;48.89
72370;BME280;60343;-32.030;115.880;2022-10-17T01:07:05;102100.50;;;21.07;48.81
72370;BME280;60343;-32.030;115.880;2022-10-17T01:09:32;102094.41;;;21.51;47.72
72370;BME280;60343;-32.030;115.880;2022-10-17T01:12:06;102097.00;;;21.97;46.68
72370;BME280;60343;-32.030;115.880;2022-10-17T01:14:46;102101.88;;;21.75;45.23
72370;BME280;60343;-32.030;115.880;2022-10-17T01:17:22;102094.13;;;21.72;45.78
72370;BME280;60343;-32.030;115.880;2022-10-17T01:20:21;102093.75;;;21.62;45.74
72370;BME280;60343;-32.030;115.880;2022-10-17T01:23:02;102094.06;;;21.85;45.62
72370;BME280;60343;-32.030;115.880;2022-10-17T01:25:39;102096.16;;;21.83;45.93
72370;BME280;60343;-32.030;115.880;2022-10-17T01:28:23;102090.97;;;21.68;45.96
72370;BME280;60343;-32.030;115.880;2022-10-17T01:31:15;102088.69;;;21.65;45.06
72370;BME280;60343;-32.030;115.880;2022-10-17T01:33:52;102089.66;;;21.97;44.89
72370;BME280;60343;-32.030;115.880;2022-10-17T01:36:36;102088.91;;;22.21;41.88
72370;BME280;60343;-32.030;115.880;2022-10-17T01:39:11;102095.53;;;22.39;41.51
72370;BME280;60343;-32.030;115.880;2022-10-17T01:41:43;102085.03;;;22.42;41.97
72370;BME280;60343;-32.030;115.880;2022-10-17T01:44:16;102092.91;;;22.57;42.74
72370;BME280;60343;-32.030;115.880;2022-10-17T01:46:51;102089.66;;;22.42;42.74
72370;BME280;60343;-32.030;115.880;2022-10-17T01:49:23;102095.31;;;22.02;43.01
72370;BME280;60343;-32.030;115.880;2022-10-17T01:51:56;102089.97;;;22.20;41.98
72370;BME280;60343;-32.030;115.880;2022-10-17T01:54:29;102091.38;;;22.30;42.50
72370;BME280;60343;-32.030;115.880;2022-10-17T01:57:00;102096.22;;;22.59;43.03
72370;BME280;60343;-32.030;115.880;2022-10-17T01:59:35;102098.25;;;23.01;39.68
72370;BME280;60343;-32.030;115.880;2022-10-17T02:02:10;102105.16;;;22.79;39.74
72370;BME280;60343;-32.030;115.880;2022-10-17T02:04:41;102096.53;;;22.82;39.14
72370;BME280;60343;-32.030;115.880;2022-10-17T02:07:10;102098.59;;;23.12;39.44
72370;BME280;60343;-32.030;115.880;2022-10-17T02:09:39;102096.97;;;23.29;39.65
72370;BME280;60343;-32.030;115.880;2022-10-17T02:12:39;102103.94;;;23.68;38.13
72370;BME280;60343;-32.030;115.880;2022-10-17T02:15:27;102096.88;;;23.35;38.13
72370;BME280;60343;-32.030;115.880;2022-10-17T02:18:07;102100.69;;;23.34;37.87
72370;BME280;60343;-32.030;115.880;2022-10-17T02:20:46;102100.25;;;23.37;38.41
72370;BME280;60343;-32.030;115.880;2022-10-17T02:23:22;102100.44;;;22.93;38.28
72370;BME280;60343;-32.030;115.880;2022-10-17T02:25:59;102094.53;;;22.96;37.97
72370;BME280;60343;-32.030;115.880;2022-10-17T02:28:32;102090.94;;;22.64;37.93
72370;BME280;60343;-32.030;115.880;2022-10-17T02:31:09;102082.00;;;22.57;37.66
72370;BME280;60343;-32.030;115.880;2022-10-17T02:33:47;102083.59;;;22.71;37.62
72370;BME280;60343;-32.030;115.880;2022-10-17T02:36:21;102095.75;;;22.75;36.74
72370;BME280;60343;-32.030;115.880;2022-10-17T02:38:50;102089.69;;;22.98;37.01
72370;BME280;60343;-32.030;115.880;2022-10-17T02:41:22;102086.41;;;23.32;37.95
72370;BME280;60343;-32.030;115.880;2022-10-17T02:43:51;102076.69;;;23.36;37.40
72370;BME280;60343;-32.030;115.880;2022-10-17T02:46:21;102083.59;;;23.64;37.55
72370;BME280;60343;-32.030;115.880;2022-10-17T02:48:57;102075.56;;;23.69;37.62
72370;BME280;60343;-32.030;115.880;2022-10-17T02:51:31;102080.63;;;23.65;36.00
72370;BME280;60343;-32.030;115.880;2022-10-17T02:54:09;102071.09;;;22.50;36.56
72370;BME280;60343;-32.030;115.880;2022-10-17T02:56:42;102074.16;;;21.84;38.21
72370;BME280;60343;-32.030;115.880;2022-10-17T02:59:14;102070.19;;;22.32;38.30
72370;BME280;60343;-32.030;115.880;2022-10-17T03:01:44;102069.09;;;22.64;37.65
72370;BME280;60343;-32.030;115.880;2022-10-17T03:04:17;102066.59;;;22.94;35.94
72370;BME280;60343;-32.030;115.880;2022-10-17T03:06:46;102066.59;;;23.19;35.52
72370;BME280;60343;-32.030;115.880;2022-10-17T03:09:14;102067.16;;;23.45;35.79
72370;BME280;60343;-32.030;115.880;2022-10-17T03:11:42;102053.28;;;23.65;34.07
72370;BME280;60343;-32.030;115.880;2022-10-17T03:14:10;102054.00;;;23.90;34.17
72370;BME280;60343;-32.030;115.880;2022-10-17T03:16:37;102057.56;;;24.09;32.14
72370;BME280;60343;-32.030;115.880;2022-10-17T03:19:05;102054.09;;;24.32;33.81
72370;BME280;60343;-32.030;115.880;2022-10-17T03:21:38;102056.06;;;24.55;33.72
72370;BME280;60343;-32.030;115.880;2022-10-17T03:24:06;102054.28;;;24.01;34.06
72370;BME280;60343;-32.030;115.880;2022-10-17T03:26:34;102057.78;;;23.35;35.67
72370;BME280;60343;-32.030;115.880;2022-10-17T03:29:01;102058.22;;;22.89;35.42
72370;BME280;60343;-32.030;115.880;2022-10-17T03:31:29;102053.22;;;22.86;36.15
72370;BME280;60343;-32.030;115.880;2022-10-17T03:33:57;102057.41;;;23.31;35.14
72370;BME280;60343;-32.030;115.880;2022-10-17T03:36:24;102056.63;;;23.24;35.01
72370;BME280;60343;-32.030;115.880;2022-10-17T03:38:59;102053.56;;;22.96;35.54
72370;BME280;60343;-32.030;115.880;2022-10-17T03:41:27;102053.94;;;22.99;35.98
72370;BME280;60343;-32.030;115.880;2022-10-17T03:43:54;102060.25;;;22.75;35.98
72370;BME280;60343;-32.030;115.880;2022-10-17T03:46:22;102047.09;;;22.59;36.26
72370;BME280;60343;-32.030;115.880;2022-10-17T03:48:49;102042.56;;;22.53;37.07
72370;BME280;60343;-32.030;115.880;2022-10-17T03:51:17;102049.31;;;22.44;37.84
72370;BME280;60343;-32.030;115.880;2022-10-17T03:53:45;102045.41;;;22.33;38.14
72370;BME280;60343;-32.030;115.880;2022-10-17T03:56:20;102052.03;;;22.12;38.75
72370;BME280;60343;-32.030;115.880;2022-10-17T03:58:48;102052.13;;;21.93;38.90
72370;BME280;60343;-32.030;115.880;2022-10-17T04:01:17;102054.88;;;21.79;40.35
72370;BME280;60343;-32.030;115.880;2022-10-17T04:03:48;102043.97;;;21.86;39.86
72370;BME280;60343;-32.030;115.880;2022-10-17T04:06:17;102045.63;;;21.87;41.38
72370;BME280;60343;-32.030;115.880;2022-10-17T04:08:45;102045.16;;;22.03;42.79
72370;BME280;60343;-32.030;115.880;2022-10-17T04:11:20;102033.38;;;22.09;42.93
72370;BME280;60343;-32.030;115.880;2022-10-17T04:13:51;102040.13;;;22.00;43.54
72370;BME280;60343;-32.030;115.880;2022-10-17T04:16:19;102041.78;;;21.57;43.03
72370;BME280;60343;-32.030;115.880;2022-10-17T04:18:50;102040.94;;;21.43;43.89
72370;BME280;60343;-32.030;115.880;2022-10-17T04:21:18;102041.97;;;21.55;43.19
72370;BME280;60343;-32.030;115.880;2022-10-17T04:23:52;102038.00;;;21.58;43.92
72370;BME280;60343;-32.030;115.880;2022-10-17T04:26:25;102044.22;;;21.71;43.78
72370;BME280;60343;-32.030;115.880;2022-10-17T04:28:53;102043.31;;;21.84;43.59
72370;BME280;60343;-32.030;115.880;2022-10-17T04:31:21;102036.19;;;21.96;43.08
72370;BME280;60343;-32.030;115.880;2022-10-17T04:33:49;102035.13;;;22.29;42.73
72370;BME280;60343;-32.030;115.880;2022-10-17T04:36:18;102026.44;;;22.69;43.46
72370;BME280;60343;-32.030;115.880;2022-10-17T04:38:46;102027.34;;;23.13;41.32
72370;BME280;60343;-32.030;115.880;2022-10-17T04:41:16;102022.63;;;22.77;42.90
72370;BME280;60343;-32.030;115.880;2022-10-17T04:43:52;102019.31;;;22.12;44.79
72370;BME280;60343;-32.030;115.880;2022-10-17T04:46:20;102016.69;;;22.24;44.20
72370;BME280;60343;-32.030;115.880;2022-10-17T04:48:50;102016.03;;;21.97;44.63
72370;BME280;60343;-32.030;115.880;2022-10-17T04:51:18;102020.28;;;21.80;45.21
72370;BME280;60343;-32.030;115.880;2022-10-17T04:53:46;102030.72;;;21.90;44.92
72370;BME280;60343;-32.030;115.880;2022-10-17T04:56:15;102024.25;;;22.53;44.19
72370;BME280;60343;-32.030;115.880;2022-10-17T04:58:49;102022.09;;;22.62;42.97
72370;BME280;60343;-32.030;115.880;2022-10-17T05:01:18;102023.28;;;22.48;43.75
72370;BME280;60343;-32.030;115.880;2022-10-17T05:03:46;102026.53;;;22.88;42.46
72370;BME280;60343;-32.030;115.880;2022-10-17T05:06:16;102023.84;;;23.24;40.33
72370;BME280;60343;-32.030;115.880;2022-10-17T05:08:44;102029.34;;;23.61;40.57
72370;BME280;60343;-32.030;115.880;2022-10-17T05:11:19;102028.66;;;24.13;39.82
72370;BME280;60343;-32.030;115.880;2022-10-17T05:13:56;102018.16;;;23.80;40.51
72370;BME280;60343;-32.030;115.880;2022-10-17T05:16:25;102000.44;;;24.31;39.34
72370;BME280;60343;-32.030;115.880;2022-10-17T05:18:54;102007.50;;;24.62;37.84
72370;BME280;60343;-32.030;115.880;2022-10-17T05:21:23;102003.63;;;24.93;37.24
72370;BME280;60343;-32.030;115.880;2022-10-17T05:23:51;102003.94;;;25.31;36.34
72370;BME280;60343;-32.030;115.880;2022-10-17T05:26:19;102006.13;;;25.06;37.14
72370;BME280;60343;-32.030;115.880;2022-10-17T05:28:47;102005.66;;;25.09;36.83
72370;BME280;60343;-32.030;115.880;2022-10-17T05:31:20;102005.88;;;24.96;37.04
72370;BME280;60343;-32.030;115.880;2022-10-17T05:33:48;101999.94;;;24.22;37.65
72370;BME280;60343;-32.030;115.880;2022-10-17T05:36:15;102003.03;;;24.26;36.85
72370;BME280;60343;-32.030;115.880;2022-10-17T05:38:43;101999.97;;;24.34;37.17
72370;BME280;60343;-32.030;115.880;2022-10-17T05:41:14;101999.94;;;24.99;36.42
72370;BME280;60343;-32.030;115.880;2022-10-17T05:43:42;102004.69;;;25.15;35.27
72370;BME280;60343;-32.030;115.880;2022-10-17T05:46:10;102003.59;;;25.28;35.55
72370;BME280;60343;-32.030;115.880;2022-10-17T05:48:43;101998.50;;;25.19;35.00
72370;BME280;60343;-32.030;115.880;2022-10-17T05:51:10;101987.44;;;25.14;35.19
72370;BME280;60343;-32.030;115.880;2022-10-17T05:53:40;101988.66;;;25.58;36.39
72370;BME280;60343;-32.030;115.880;2022-10-17T05:56:09;101988.09;;;25.85;35.00
72370;BME280;60343;-32.030;115.880;2022-10-17T05:58:40;101989.38;;;26.22;33.94
72370;BME280;60343;-32.030;115.880;2022-10-17T06:01:08;101990.19;;;25.94;33.75
72370;BME280;60343;-32.030;115.880;2022-10-17T06:03:43;101992.34;;;25.41;34.32
72370;BME280;60343;-32.030;115.880;2022-10-17T06:06:12;101988.94;;;25.10;34.38
72370;BME280;60343;-32.030;115.880;2022-10-17T06:08:40;101996.94;;;25.24;34.99
72370;BME280;60343;-32.030;115.880;2022-10-17T06:11:07;101991.50;;;25.63;34.17
72370;BME280;60343;-32.030;115.880;2022-10-17T06:13:35;102000.50;;;25.76;33.56
72370;BME280;60343;-32.030;115.880;2022-10-17T06:16:03;101990.81;;;25.56;33.58
72370;BME280;60343;-32.030;115.880;2022-10-17T06:18:30;102003.25;;;25.76;32.69
72370;BME280;60343;-32.030;115.880;2022-10-17T06:21:09;101997.66;;;25.19;33.34
72370;BME280;60343;-32.030;115.880;2022-10-17T06:23:37;101995.50;;;25.21;33.41
72370;BME280;60343;-32.030;115.880;2022-10-17T06:26:06;102006.59;;;24.91;33.06
72370;BME280;60343;-32.030;115.880;2022-10-17T06:28:34;101997.78;;;25.01;33.39
72370;BME280;60343;-32.030;115.880;2022-10-17T06:31:05;101989.69;;;25.06;33.95
72370;BME280;60343;-32.030;115.880;2022-10-17T06:33:33;101990.50;;;25.06;34.53
72370;BME280;60343;-32.030;115.880;2022-10-17T06:36:07;101995.75;;;24.73;33.95
72370;BME280;60343;-32.030;115.880;2022-10-17T06:38:36;102000.00;;;24.80;33.07
72370;BME280;60343;-32.030;115.880;2022-10-17T06:41:05;101993.59;;;25.10;33.20
72370;BME280;60343;-32.030;115.880;2022-10-17T06:43:33;101992.06;;;25.14;33.59
72370;BME280;60343;-32.030;115.880;2022-10-17T06:46:07;101997.66;;;25.19;33.17
72370;BME280;60343;-32.030;115.880;2022-10-17T06:48:45;101998.31;;;25.49;33.32
72370;BME280;60343;-32.030;115.880;2022-10-17T06:51:22;101994.38;;;25.45;33.46
72370;BME280;60343;-32.030;115.880;2022-10-17T06:53:50;101999.59;;;25.70;33.40
72370;BME280;60343;-32.030;115.880;2022-10-17T06:56:17;102005.03;;;25.82;33.28
72370;BME280;60343;-32.030;115.880;2022-10-17T06:58:45;101990.25;;;25.83;32.81
72370;BME280;60343;-32.030;115.880;2022-10-17T07:01:13;101999.03;;;25.56;33.45
72370;BME280;60343;-32.030;115.880;2022-10-17T07:03:45;101990.38;;;25.76;33.38
72370;BME280;60343;-32.030;115.880;2022-10-17T07:06:22;101993.88;;;26.00;33.38
72370;BME280;60343;-32.030;115.880;2022-10-17T07:08:50;101995.09;;;25.92;33.61
72370;BME280;60343;-32.030;115.880;2022-10-17T07:11:50;101991.28;;;25.42;34.57
72370;BME280;60343;-32.030;115.880;2022-10-17T07:14:17;102003.91;;;25.54;34.42
72370;BME280;60343;-32.030;115.880;2022-10-17T07:16:45;102000.84;;;25.39;34.51
72370;BME280;60343;-32.030;115.880;2022-10-17T07:19:12;101996.44;;;25.38;34.05
72370;BME280;60343;-32.030;115.880;2022-10-17T07:22:01;102005.66;;;24.97;35.07
72370;BME280;60343;-32.030;115.880;2022-10-17T07:24:34;102004.00;;;25.08;35.68
72370;BME280;60343;-32.030;115.880;2022-10-17T07:27:04;102006.22;;;25.23;36.17
72370;BME280;60343;-32.030;115.880;2022-10-17T07:29:35;102006.72;;;25.08;36.77
72370;BME280;60343;-32.030;115.880;2022-10-17T07:32:02;101998.88;;;25.00;36.43
72370;BME280;60343;-32.030;115.880;2022-10-17T07:34:40;102009.91;;;24.82;37.46
72370;BME280;60343;-32.030;115.880;2022-10-17T07:37:21;102007.03;;;24.76;37.99
72370;BME280;60343;-32.030;115.880;2022-10-17T07:43:14;102007.31;;;25.21;36.98
72370;BME280;60343;-32.030;115.880;2022-10-17T07:45:50;102021.63;;;25.24;36.42
72370;BME280;60343;-32.030;115.880;2022-10-17T07:48:43;102019.19;;;24.57;37.84
72370;BME280;60343;-32.030;115.880;2022-10-17T07:51:21;102022.31;;;24.31;38.55
72370;BME280;60343;-32.030;115.880;2022-10-17T07:53:56;102018.91;;;24.47;39.84
72370;BME280;60343;-32.030;115.880;2022-10-17T07:56:24;102013.78;;;24.51;39.90
72370;BME280;60343;-32.030;115.880;2022-10-17T07:58:55;102027.66;;;24.26;39.46
72370;BME280;60343;-32.030;115.880;2022-10-17T08:01:23;102031.97;;;24.04;41.13
72370;BME280;60343;-32.030;115.880;2022-10-17T08:03:51;102038.09;;;24.17;41.10
72370;BME280;60343;-32.030;115.880;2022-10-17T08:06:18;102037.91;;;24.30;40.23
72370;BME280;60343;-32.030;115.880;2022-10-17T08:11:47;102027.00;;;24.12;40.84
72370;BME280;60343;-32.030;115.880;2022-10-17T08:14:18;102033.22;;;24.49;39.15
72370;BME280;60343;-32.030;115.880;2022-10-17T08:16:46;102033.13;;;24.26;39.71
72370;BME280;60343;-32.030;115.880;2022-10-17T08:19:19;102040.69;;;24.42;38.88
72370;BME280;60343;-32.030;115.880;2022-10-17T08:21:47;102033.63;;;24.34;39.05
72370;BME280;60343;-32.030;115.880;2022-10-17T08:24:14;102027.34;;;24.34;39.41
72370;BME280;60343;-32.030;115.880;2022-10-17T08:27:08;102039.28;;;23.91;41.76
72370;BME280;60343;-32.030;115.880;2022-10-17T08:29:35;102037.44;;;23.85;43.17
72370;BME280;60343;-32.030;115.880;2022-10-17T08:32:03;102034.06;;;23.72;42.70
72370;BME280;60343;-32.030;115.880;2022-10-17T08:34:33;102044.84;;;23.67;42.98
72370;BME280;60343;-32.030;115.880;2022-10-17T08:37:25;102046.16;;;23.03;43.40
72370;BME280;60343;-32.030;115.880;2022-10-17T08:40:05;102031.09;;;22.94;43.80
72370;BME280;60343;-32.030;115.880;2022-10-17T08:43:07;102036.97;;;23.16;43.64
72370;BME280;60343;-32.030;115.880;2022-10-17T08:45:49;102032.34;;;22.73;45.54
72370;BME280;60343;-32.030;115.880;2022-10-17T08:48:23;102041.69;;;22.84;45.44
72370;BME280;60343;-32.030;115.880;2022-10-17T08:50:54;102048.56;;;22.93;45.11
72370;BME280;60343;-32.030;115.880;2022-10-17T08:53:26;102044.13;;;22.67;45.36
72370;BME280;60343;-32.030;115.880;2022-10-17T08:55:56;102045.31;;;22.46;46.29
72370;BME280;60343;-32.030;115.880;2022-10-17T08:58:31;102043.72;;;22.01;47.34
72370;BME280;60343;-32.030;115.880;2022-10-17T09:01:04;102044.56;;;21.88;48.09
72370;BME280;60343;-32.030;115.880;2022-10-17T09:03:52;102045.94;;;21.66;48.71
72370;BME280;60343;-32.030;115.880;2022-10-17T09:06:26;102042.19;;;21.54;49.40
72370;BME280;60343;-32.030;115.880;2022-10-17T09:09:05;102053.81;;;21.16;50.39
72370;BME280;60343;-32.030;115.880;2022-10-17T09:11:50;102051.72;;;20.92;51.35
72370;BME280;60343;-32.030;115.880;2022-10-17T09:14:42;102054.00;;;20.69;52.31
72370;BME280;60343;-32.030;115.880;2022-10-17T09:17:21;102054.00;;;20.62;52.87
72370;BME280;60343;-32.030;115.880;2022-10-17T09:19:59;102055.47;;;20.51;53.69
72370;BME280;60343;-32.030;115.880;2022-10-17T09:22:32;102062.53;;;20.39;54.30
72370;BME280;60343;-32.030;115.880;2022-10-17T09:25:03;102057.66;;;20.15;55.16
72370;BME280;60343;-32.030;115.880;2022-10-17T09:27:35;102067.63;;;19.95;55.33
72370;BME280;60343;-32.030;115.880;2022-10-17T09:30:33;102068.53;;;19.67;55.47
72370;BME280;60343;-32.030;115.880;2022-10-17T09:33:07;102067.69;;;19.67;55.56
72370;BME280;60343;-32.030;115.880;2022-10-17T09:35:47;102071.84;;;19.56;55.94
72370;BME280;60343;-32.030;115.880;2022-10-17T09:38:18;102073.34;;;19.38;56.79
72370;BME280;60343;-32.030;115.880;2022-10-17T09:40:48;102079.53;;;19.25;58.19
72370;BME280;60343;-32.030;115.880;2022-10-17T09:43:16;102088.47;;;19.19;58.35
72370;BME280;60343;-32.030;115.880;2022-10-17T09:46:01;102089.94;;;19.21;58.72
72370;BME280;60343;-32.030;115.880;2022-10-17T09:48:34;102093.97;;;19.25;58.75
72370;BME280;60343;-32.030;115.880;2022-10-17T09:51:05;102080.16;;;19.27;58.74
72370;BME280;60343;-32.030;115.880;2022-10-17T09:53:36;102090.19;;;19.26;58.72
72370;BME280;60343;-32.030;115.880;2022-10-17T09:56:09;102093.56;;;19.01;59.66
72370;BME280;60343;-32.030;115.880;2022-10-17T09:58:43;102095.28;;;18.80;60.41
72370;BME280;60343;-32.030;115.880;2022-10-17T10:01:27;102100.94;;;18.64;61.41
72370;BME280;60343;-32.030;115.880;2022-10-17T10:04:11;102097.88;;;18.53;62.02
72370;BME280;60343;-32.030;115.880;2022-10-17T10:06:41;102103.44;;;18.44;62.34
72370;BME280;60343;-32.030;115.880;2022-10-17T10:09:29;102102.69;;;18.36;62.73
72370;BME280;60343;-32.030;115.880;2022-10-17T10:11:59;102095.91;;;18.25;62.46
72370;BME280;60343;-32.030;115.880;2022-10-17T10:20:48;102102.00;;;18.13;62.36
72370;BME280;60343;-32.030;115.880;2022-10-17T10:23:28;102107.16;;;18.08;62.60
72370;BME280;60343;-32.030;115.880;2022-10-17T10:25:57;102102.03;;;17.98;63.06
72370;BME280;60343;-32.030;115.880;2022-10-17T10:28:26;102114.13;;;17.95;62.99
72370;BME280;60343;-32.030;115.880;2022-10-17T10:30:56;102110.47;;;17.88;63.35
72370;BME280;60343;-32.030;115.880;2022-10-17T10:33:27;102113.06;;;17.82;63.47
72370;BME280;60343;-32.030;115.880;2022-10-17T10:36:03;102112.34;;;17.73;63.42
72370;BME280;60343;-32.030;115.880;2022-10-17T10:38:32;102116.91;;;17.73;63.63
72370;BME280;60343;-32.030;115.880;2022-10-17T10:41:03;102120.94;;;17.62;64.15
72370;BME280;60343;-32.030;115.880;2022-10-17T10:43:33;102126.00;;;17.65;64.78
72370;BME280;60343;-32.030;115.880;2022-10-17T10:46:03;102128.50;;;17.67;64.83
72370;BME280;60343;-32.030;115.880;2022-10-17T10:48:34;102136.34;;;17.62;65.61
72370;BME280;60343;-32.030;115.880;2022-10-17T10:51:13;102138.28;;;17.53;66.13
72370;BME280;60343;-32.030;115.880;2022-10-17T10:53:49;102145.56;;;17.52;65.54
72370;BME280;60343;-32.030;115.880;2022-10-17T10:56:25;102147.59;;;17.50;65.78
72370;BME280;60343;-32.030;115.880;2022-10-17T10:58:57;102143.22;;;17.49;65.69
72370;BME280;60343;-32.030;115.880;2022-10-17T11:01:30;102154.22;;;17.48;65.57
72370;BME280;60343;-32.030;115.880;2022-10-17T11:07:06;102160.94;;;17.37;66.08
72370;BME280;60343;-32.030;115.880;2022-10-17T11:09:45;102169.91;;;17.38;66.08
72370;BME280;60343;-32.030;115.880;2022-10-17T11:12:19;102174.56;;;17.29;66.77
72370;BME280;60343;-32.030;115.880;2022-10-17T11:14:52;102183.47;;;17.15;67.42
72370;BME280;60343;-32.030;115.880;2022-10-17T11:17:27;102179.72;;;17.16;67.61
72370;BME280;60343;-32.030;115.880;2022-10-17T11:20:09;102185.34;;;17.14;67.46
72370;BME280;60343;-32.030;115.880;2022-10-17T11:22:44;102188.66;;;16.79;68.87
72370;BME280;60343;-32.030;115.880;2022-10-17T11:25:26;102191.34;;;16.79;69.35
72370;BME280;60343;-32.030;115.880;2022-10-17T11:27:55;102193.00;;;16.80;69.09
72370;BME280;60343;-32.030;115.880;2022-10-17T11:30:24;102195.25;;;16.77;69.06
72370;BME280;60343;-32.030;115.880;2022-10-17T11:32:55;102208.63;;;16.70;69.94
72370;BME280;60343;-32.030;115.880;2022-10-17T11:35:26;102198.66;;;16.70;69.84
72370;BME280;60343;-32.030;115.880;2022-10-17T11:38:11;102199.03;;;16.90;69.18
72370;BME280;60343;-32.030;115.880;2022-10-17T11:40:44;102205.09;;;16.92;69.24
72370;BME280;60343;-32.030;115.880;2022-10-17T11:43:17;102209.69;;;16.92;69.15
72370;BME280;60343;-32.030;115.880;2022-10-17T11:45:49;102209.19;;;16.88;69.23
72370;BME280;60343;-32.030;115.880;2022-10-17T11:48:19;102215.56;;;16.95;69.02
72370;BME280;60343;-32.030;115.880;2022-10-17T11:50:50;102216.72;;;17.01;68.78
72370;BME280;60343;-32.030;115.880;2022-10-17T11:53:30;102219.06;;;17.04;68.93
72370;BME280;60343;-32.030;115.880;2022-10-17T11:56:01;102220.09;;;17.03;69.35
72370;BME280;60343;-32.030;115.880;2022-10-17T11:58:35;102222.78;;;17.03;69.01
72370;BME280;60343;-32.030;115.880;2022-10-17T12:01:21;102219.31;;;16.94;69.35
72370;BME280;60343;-32.030;115.880;2022-10-17T12:05:36;102228.13;;;16.88;69.71
72370;BME280;60343;-32.030;115.880;2022-10-17T12:07:18;102227.53;;;16.78;69.88
72370;BME280;60343;-32.030;115.880;2022-10-17T12:10:14;102234.63;;;16.79;70.14
72370;BME280;60343;-32.030;115.880;2022-10-17T12:12:52;102244.94;;;16.76;70.24
72370;BME280;60343;-32.030;115.880;2022-10-17T12:15:37;102243.59;;;16.71;70.58
72370;BME280;60343;-32.030;115.880;2022-10-17T12:18:03;102251.41;;;16.66;70.85
72370;BME280;60343;-32.030;115.880;2022-10-17T12:20:40;102250.59;;;16.58;70.92
72370;BME280;60343;-32.030;115.880;2022-10-17T12:23:27;102253.81;;;16.53;71.44
72370;BME280;60343;-32.030;115.880;2022-10-17T12:26:10;102258.69;;;16.66;71.25
72370;BME280;60343;-32.030;115.880;2022-10-17T12:28:51;102257.34;;;16.62;71.38
72370;BME280;60343;-32.030;115.880;2022-10-17T12:31:26;102268.19;;;16.54;71.43
72370;BME280;60343;-32.030;115.880;2022-10-17T12:33:59;102258.38;;;16.53;71.54
72370;BME280;60343;-32.030;115.880;2022-10-17T12:36:52;102264.84;;;16.44;71.98
72370;BME280;60343;-32.030;115.880;2022-10-17T12:39:51;102270.25;;;16.44;72.03
72370;BME280;60343;-32.030;115.880;2022-10-17T12:45:50;102276.19;;;16.39;72.04
72370;BME280;60343;-32.030;115.880;2022-10-17T12:51:23;102277.41;;;16.28;72.51
72370;BME280;60343;-32.030;115.880;2022-10-17T12:54:21;102273.69;;;16.21;72.96
72370;BME280;60343;-32.030;115.880;2022-10-17T12:56:49;102279.13;;;16.13;73.12
72370;BME280;60343;-32.030;115.880;2022-10-17T12:59:26;102268.16;;;16.07;73.67
72370;BME280;60343;-32.030;115.880;2022-10-17T13:02:18;102274.06;;;16.10;73.92
72370;BME280;60343;-32.030;115.880;2022-10-17T13:04:47;102270.69;;;16.08;73.88
72370;BME280;60343;-32.030;115.880;2022-10-17T13:07:20;102268.16;;;16.07;73.45
72370;BME280;60343;-32.030;115.880;2022-10-17T13:09:59;102271.56;;;15.93;73.54
72370;BME280;60343;-32.030;115.880;2022-10-17T13:12:28;102272.41;;;15.85;74.28
72370;BME280;60343;-32.030;115.880;2022-10-17T13:14:59;102270.25;;;15.88;74.25
72370;BME280;60343;-32.030;115.880;2022-10-17T13:17:33;102275.31;;;15.75;74.30